• Join FlightAware (Why Join?)
  • Login
  • US Flag 
12:26PM EDT


 

Airport Tracker/Info


-or-


 

Live Flight TrackerFlight Track Log ✈ QFA790 ✈ 05-Jul-2013 ✈ YSSY / SYD - YBAS / ASP

Flight Track Log - Related Links

Times and Time Zones

All times are in EDT time to prevent confusion due to time zone crossing. See the QFA790 flight status page for this flight to view local times or setup timezone preferences in your user account.

Time Position Orientation Groundspeed Altitude Reporting Facility
EDT Latitude Longitude Course Direction KTS MPH feet Rate Location/Type
07:45PM -33.9300 151.1770 292° West 14 16  Level FlightAware
07:45PM -33.9300 151.1760 270° West 16 18  Level FlightAware
07:45PM -33.9320 151.1750 203° Southwest 18 21  Level FlightAware
07:46PM -33.9380 151.1770 165° South 21 24  Level FlightAware
07:47PM -33.9400 151.1780 157° South 21 24  Level FlightAware
07:47PM -33.9430 151.1790 165° South 25 29  Level FlightAware
07:48PM -33.9470 151.1790 180° South 20 23  Level FlightAware
07:48PM -33.9480 151.1800 140° Southeast 22 25  Level FlightAware
07:49PM -33.9510 151.1800 180° South 19 22  Level FlightAware
07:49PM -33.9520 151.1800 180° South 10 12  Level FlightAware
07:49PM -33.9520 151.1790 270° West 7 8  Level FlightAware
07:52PM -33.8774 150.9041 288° West  Level FlightAware Approximate
07:52PM -33.9520 151.1780 288° West 10 12  Level FlightAware
07:52PM -33.9530 151.1760 239° Southwest 14 16  Level FlightAware
07:52PM -33.9540 151.1760 180° South 14 16  Level FlightAware
07:52PM -33.9550 151.1760 180° South 14 16  Level FlightAware
07:53PM -33.9560 151.1770 140° Southeast 14 16  Level FlightAware
07:53PM -33.9570 151.1770 180° South 14 16  Level FlightAware
07:54PM -33.9590 151.1770 180° South 14 16  Level FlightAware
07:54PM -33.9600 151.1780 140° Southeast 15 17  Level FlightAware
07:54PM -33.9610 151.1780 180° South 15 17  Level FlightAware
07:55PM -33.9630 151.1780 180° South 14 16  Level FlightAware
07:55PM -33.9640 151.1790 140° Southeast 10 12  Level FlightAware
07:58PM -33.8832 150.8955 289° West  Level FlightAware Approximate
07:59PM -33.8489 150.7758 289° West  Level FlightAware Approximate
07:59PM -33.9640 151.1800 289° West 8 9  Level FlightAware
07:59PM -33.9640 151.1810 90° East 8 9 120 Level FlightAware
08:00PM -33.9630 151.1800 320° Northwest 7 8 120 Level FlightAware
08:00PM -33.9530 151.1780 351° North 130 150 240 Level FlightAware
08:01PM -33.9430 151.1750 346° North 167 192 200 1,740 Climbing FlightAware
08:01PM -33.9169 151.0672 97° East 23,900 2,400 Climbing Aus ATC (Calculated)
08:01PM -33.9280 151.1710 346° North 169 194 1,000 -56,520 Descending FlightAware
08:01PM -33.9200 151.1670 337° Northwest 176 203 1,300 1,500 Climbing FlightAware
08:01PM -33.9100 151.1510 307° West 194 223 1,800 2,100 Climbing FlightAware
08:02PM -33.8970 151.1270 303° West 211 243 2,900 2,880 Climbing FlightAware
08:02PM -33.8890 151.1110 301° West 207 238 3,700 1,980 Climbing FlightAware
08:03PM -33.8750 151.0840 302° West 249 287 4,200 2,280 Climbing FlightAware
08:03PM -33.8550 151.0470 303° West 266 306 5,800 3,780 Climbing FlightAware
08:03PM -33.8450 151.0280 302° West 246 283 7,100 3,180 Climbing FlightAware
08:04PM -33.8280 150.9880 297° West 272 313 8,300 1,920 Climbing FlightAware
08:04PM -33.8200 150.9480 284° West 301 346 8,900 2,340 Climbing FlightAware
08:05PM -33.8100 150.8850 281° West 311 358 10,800 2,700 Climbing FlightAware
08:06PM -33.7970 150.8090 282° West 320 368 12,900 2,820 Climbing FlightAware
08:06PM -33.7850 150.7400 282° West 325 374 14,800 2,820 Climbing FlightAware
08:07PM -33.7752 150.6778 282° West 312 359 16,200 2,700 Climbing Aus ATC (RADAR)
08:07PM -33.7730 150.6680 282° West 328 377 16,600 2,460 Climbing FlightAware
08:08PM -33.7630 150.6070 282° West 332 382 18,000 2,340 Climbing FlightAware
08:08PM -33.7600 150.5882 282° West 317 365 18,300 2,160 Climbing Aus ATC (RADAR)
08:08PM -33.7491 150.5240 282° West 324 373 19,500 2,100 Climbing Aus ATC (RADAR)
08:08PM -33.7480 150.5170 282° West 343 395 19,700 1,860 Climbing FlightAware
08:09PM -33.7340 150.4370 282° West 351 404 21,000 1,740 Climbing FlightAware
08:10PM -33.7220 150.3620 281° West 353 406 22,200 1,680 Climbing FlightAware
08:10PM -33.7070 150.2860 283° West 354 407 23,300 1,620 Climbing FlightAware
08:11PM -33.6895 150.2201 283° West 342 394 24,100 1,560 Climbing Aus ATC (RADAR)
08:11PM -33.6840 150.2000 283° West 355 409 24,400 1,260 Climbing FlightAware
08:12PM -33.6660 150.1360 289° West 360 414 25,100 1,200 Climbing FlightAware
08:12PM -33.6479 150.0683 289° West 351 404 25,800 1,260 Climbing Aus ATC (RADAR)
08:13PM -33.6360 150.0230 289° West 369 425 26,300 1,080 Climbing FlightAware
08:13PM -33.6161 149.9521 289° West 358 412 26,900 1,020 Climbing Aus ATC (RADAR)
08:13PM -33.6110 149.9350 289° West 371 427 27,100 1,620 Climbing FlightAware
08:14PM -33.5910 149.8610 288° West 366 421 28,200 1,380 Climbing FlightAware
08:15PM -33.5735 149.7979 288° West 353 406 28,800 1,200 Climbing Aus ATC (RADAR)
08:15PM -33.5690 149.7820 288° West 364 419 29,000 1,200 Climbing FlightAware
08:15PM -33.5450 149.6960 288° West 363 418 29,900 1,140 Climbing FlightAware
08:16PM -33.5287 149.6356 288° West 352 405 30,500 1,200 Climbing Aus ATC (RADAR)
08:16PM -33.5270 149.6280 288° West 363 418 30,600 1,020 Climbing FlightAware
08:17PM -33.5101 149.5691 288° West 353 406 31,100 1,020 Climbing Aus ATC (RADAR)
08:17PM -33.5060 149.5520 288° West 362 417 31,300 1,080 Climbing FlightAware
08:17PM -33.4820 149.4670 289° West 361 415 32,100 960 Climbing FlightAware
08:18PM -33.4610 149.3920 289° West 360 414 32,700 1,020 Climbing FlightAware
08:19PM -33.4420 149.3250 289° West 359 413 33,400 960 Climbing FlightAware
08:19PM -33.4220 149.2530 288° West 359 413 33,900 420 Climbing FlightAware
08:20PM -33.4000 149.1750 288° West 362 417 34,000 120 Climbing FlightAware
08:20PM -33.3991 149.1729 288° West 352 405 34,000  Level Aus ATC (RADAR)
08:21PM -33.3803 149.1069 288° West 353 406 34,000  Level Aus ATC (RADAR)
08:21PM -33.3760 149.0890 288° West 362 417 34,000  Level FlightAware
08:22PM -33.3520 149.0070 289° West 365 420 34,000  Level FlightAware
08:22PM -33.3320 148.9340 288° West 364 419 34,000  Level FlightAware
08:23PM -33.3060 148.8450 289° West 359 413 34,000  Level FlightAware
08:23PM -33.2880 148.7800 288° West 358 412 34,000  Level FlightAware
08:24PM -33.2660 148.7050 289° West 359 413 34,000  Level FlightAware
08:25PM -33.2420 148.6220 289° West 359 413 34,000  Level FlightAware
08:25PM -33.2230 148.5550 289° West 360 414 34,000  Level FlightAware
08:26PM -33.2057 148.4946 289° West 353 406 34,000  Level Aus ATC (RADAR)
08:26PM -33.2020 148.4810 289° West 360 414 34,000  Level FlightAware
08:27PM -33.1770 148.3970 290° West 360 414 34,000 -120 Level FlightAware
08:27PM -33.1598 148.3353 290° West 353 406 33,900  Descending Aus ATC (RADAR)
08:28PM -33.1550 148.3200 290° West 358 412 34,000 120 Climbing FlightAware
08:28PM -33.1330 148.2470 290° West 354 407 34,000  Level FlightAware
08:29PM -33.0990 148.1780 300° West 358 412 34,000  Level FlightAware
08:30PM -33.0663 148.1171 300° West 353 406 34,000  Level Aus ATC (RADAR)
08:30PM -33.0590 148.1040 300° West 358 412 34,000  Level FlightAware
08:30PM -33.0303 148.0508 300° West 354 407 34,000  Level Aus ATC (RADAR)
08:30PM -33.0230 148.0370 300° West 357 411 34,000  Level FlightAware
08:31PM -32.9830 147.9630 303° West 356 410 34,000  Level FlightAware
08:32PM -32.9470 147.8980 303° West 355 409 34,000  Level FlightAware
08:32PM -32.9110 147.8320 303° West 355 409 34,000  Level FlightAware
08:33PM -32.8710 147.7590 303° West 356 410 34,000  Level FlightAware
08:33PM -32.8696 147.7559 303° West 349 402 34,000  Level Aus ATC (RADAR)
08:34PM -32.8336 147.6904 303° West 350 403 34,000  Level Aus ATC (RADAR)
08:34PM -32.8350 147.6920 303° West 356 410 34,000  Level FlightAware
08:34PM -32.8023 147.6327 303° West 353 406 34,000  Level Aus ATC (RADAR)
08:35PM -32.7940 147.6190 303° West 357 411 34,000  Level FlightAware
08:35PM -32.7590 147.5540 303° West 358 412 34,000  Level FlightAware
08:36PM -32.7170 147.4790 304° West 358 412 34,000  Level FlightAware
08:37PM -32.6820 147.4140 303° West 359 413 34,000  Level FlightAware
08:37PM -32.6490 147.3560 304° West 359 413 34,000  Level FlightAware
08:38PM -32.6140 147.2910 304° West 360 414 34,000  Level FlightAware
08:38PM -32.6122 147.2872 304° West 356 410 34,000  Level Aus ATC (RADAR)
08:39PM -32.5710 147.2150 304° West 357 411 34,000  Level FlightAware
08:39PM -32.5390 147.1560 303° West 357 411 34,000 60 Level FlightAware
08:40PM -32.5065 147.0980 303° West 356 410 34,100  Climbing Aus ATC (RADAR)
08:40PM -32.5020 147.0890 303° West 358 412 34,000  Descending FlightAware
08:40PM -32.4743 147.0403 303° West 357 411 34,100  Climbing Aus ATC (RADAR)
08:41PM -32.4650 147.0250 303° West 357 411 34,000 -120 Descending FlightAware
08:41PM -32.4240 146.9500 303° West 360 414 34,000  Level FlightAware
08:42PM -32.3870 146.8840 304° West 360 414 34,000  Level FlightAware
08:43PM -32.3460 146.8110 304° West 360 414 34,000 120 Level FlightAware
08:43PM -32.3461 146.8101 304° West 356 410 34,100  Climbing Aus ATC (RADAR)
08:43PM -32.3090 146.7450 304° West 356 410 34,000  Descending FlightAware
08:44PM -32.2720 146.6796 304° West 357 411 34,100  Climbing Aus ATC (RADAR)
08:44PM -32.2630 146.6630 304° West 356 410 34,000  Descending FlightAware
08:45PM -32.2303 146.6059 304° West 358 412 34,100  Climbing Aus ATC (RADAR)
08:45PM -32.2260 146.5980 304° West 356 410 34,000 -120 Descending FlightAware
08:46PM -32.1840 146.5230 303° West 357 411 34,000  Level FlightAware
08:46PM -32.1520 146.4670 304° West 358 412 34,000 60 Level FlightAware
08:47PM -32.1256 146.4153 304° West 364 419 34,100  Climbing Aus ATC (RADAR)
08:47PM -32.1140 146.4000 304° West 359 413 34,000 -120 Descending FlightAware
08:48PM -32.0720 146.3260 304° West 361 415 34,000  Level FlightAware
08:48PM -32.0340 146.2590 304° West 361 415 34,000  Level FlightAware
08:49PM -31.9970 146.1950 304° West 361 415 34,000  Level FlightAware
08:50PM -31.9550 146.1200 303° West 362 417 34,000  Level FlightAware
08:50PM -31.9160 146.0520 304° West 361 415 34,000  Level FlightAware
08:51PM -31.8790 145.9870 304° West 362 417 34,000 120 Level FlightAware
08:51PM -31.8765 145.9915 304° West 361 415 34,100  Climbing Aus ATC (RADAR)
08:52PM -31.8450 145.9290 305° West 361 415 34,000 -120 Descending FlightAware
08:52PM -31.8030 145.8560 304° West 362 417 34,000  Level FlightAware
08:53PM -31.7640 145.7890 304° West 362 417 34,000 60 Level FlightAware
08:54PM -31.7375 145.7389 304° West 368 423 34,100  Climbing Aus ATC (RADAR)
08:54PM -31.7310 145.7320 304° West 362 417 34,000  Descending FlightAware
08:54PM -31.7075 145.6772 304° West 368 423 34,100  Climbing Aus ATC (RADAR)
08:54PM -31.6930 145.6650 304° West 362 417 34,000 -180 Descending FlightAware
08:55PM -31.6560 145.6000 304° West 362 417 34,000 60 Level FlightAware
08:56PM -31.6248 145.5408 304° West 362 417 34,100  Climbing Aus ATC (RADAR)
08:56PM -31.6100 145.5210 304° West 362 417 34,000 -180 Descending FlightAware
08:56PM -31.5810 145.4690 303° West 362 417 34,000  Level FlightAware
08:57PM -31.5430 145.4020 304° West 362 417 34,000  Level FlightAware
08:58PM -31.5150 145.3520 303° West 362 417 34,000  Level FlightAware
08:58PM -31.4870 145.3000 302° West 362 417 34,000  Level FlightAware
08:59PM -31.4500 145.2330 303° West 362 417 34,000  Level FlightAware
09:00PM -31.4220 145.1820 303° West 362 417 34,000  Level FlightAware
09:00PM -31.3940 145.1320 303° West 362 417 34,000  Level FlightAware
09:01PM -31.3650 145.0800 303° West 362 417 34,000  Level FlightAware
09:02PM -31.3270 145.0120 303° West 362 417 34,000  Level FlightAware
09:02PM -31.2495 144.9179 143° Southeast 34,000  Level Aus ATC (Calculated)
09:02PM -31.2980 144.9600 303° West 362 417 34,000  Level FlightAware
09:03PM -31.2630 144.8960 303° West 362 417 34,000  Level FlightAware
09:04PM -31.2150 144.8110 303° West 362 417 34,000  Level FlightAware
09:05PM -31.1860 144.7580 303° West 362 417 34,000  Level FlightAware
09:05PM -31.1580 144.7070 303° West 362 417 34,000  Level FlightAware
09:07PM -30.9492 144.4093 305° West 34,000  Level Aus ATC (Calculated)
09:08PM -31.0382 144.5112 305° West  Level FlightAware Approximate
09:09PM -30.8822 144.2967 305° West  Level FlightAware Approximate
09:10PM -30.8239 144.1990 305° West  Level FlightAware Approximate
09:11PM -30.7655 144.1014 305° West  Level FlightAware Approximate
09:12PM -30.7070 144.0039 305° West  Level FlightAware Approximate
09:12PM -30.6595 143.9248 305° West 34,000  Level Aus ATC (Calculated)
09:13PM -30.6485 143.9065 305° West  Level FlightAware Approximate
09:14PM -30.5921 143.8130 305° West  Level FlightAware Approximate
09:15PM -30.5334 143.7158 305° West  Level FlightAware Approximate
09:16PM -30.4746 143.6188 305° West  Level FlightAware Approximate
09:17PM -30.4158 143.5219 305° West  Level FlightAware Approximate
09:17PM -30.3558 143.4232 305° West 34,000  Level Aus ATC (Calculated)
09:17PM -30.3558 143.4232 305° West 34,000  Level Aus ATC (Calculated)
09:18PM -30.3569 143.4251 305° West  Level FlightAware Approximate
09:19PM -30.2870 143.3104 305° West  Level FlightAware Approximate
09:20PM -30.2279 143.2139 305° West  Level FlightAware Approximate
09:20PM -30.2185 143.1985 305° West 34,000  Level Aus ATC (Calculated)
09:22PM -30.1347 143.0620 305° West  Level FlightAware Approximate
09:23PM -30.1458 143.0803 306° West  Level FlightAware Approximate
09:23PM -30.0355 142.9023 306° West 34,000  Level Aus ATC (Calculated)
09:24PM -29.9324 142.7366 306° West 34,000  Level Aus ATC (Calculated)
09:25PM -29.8980 142.6815 306° West 34,000  Level Aus ATC (Calculated)
09:26PM -29.8527 142.6090 306° West 34,000  Level Aus ATC (Calculated)
09:27PM -29.7619 142.4643 306° West 34,000  Level Aus ATC (Calculated)
09:28PM -29.9672 142.7923 126° Southeast  Level FlightAware Approximate
09:29PM -29.8706 142.6377 126° Southeast  Level FlightAware Approximate
09:29PM -29.5798 142.1755 306° West 34,000  Level Aus ATC (Calculated)
09:30PM -29.8637 142.6266 306° West  Level FlightAware Approximate
09:30PM -29.5290 142.0950 306° West 384 442 34,000  Level FlightAware
09:31PM -29.5187 142.0790 306° West  Level FlightAware Approximate
09:31PM -29.4820 142.0210 306° West 385 443 34,000  Level FlightAware
09:32PM -29.4140 141.9150 306° West 384 442 34,000  Level FlightAware
09:33PM -29.3830 141.8640 305° West 384 442 34,000  Level FlightAware
09:34PM -29.3280 141.7790 307° West 384 442 34,000  Level FlightAware
09:34PM -29.2597 141.6727 127° Southeast 34,000  Level Aus ATC (Calculated)
09:35PM -29.2960 141.7280 306° West 384 442 34,000  Level FlightAware
09:35PM -29.2640 141.6780 306° West 384 442 34,000  Level FlightAware
09:36PM -29.2220 141.6110 306° West 384 442 34,000  Level FlightAware
09:37PM -29.1380 141.4830 307° West 389 448 34,000  Level FlightAware
09:37PM -29.1030 141.4290 307° West 390 449 34,000  Level FlightAware
09:38PM -29.0550 141.3550 307° West 391 450 34,000  Level FlightAware
09:39PM -29.0070 141.2800 306° West 392 451 34,000  Level FlightAware
09:39PM -28.9750 141.2290 306° West 392 451 34,000  Level FlightAware
09:39PM -28.9838 141.2442 307° West 34,000  Level Aus ATC (Calculated)
09:40PM -28.9070 141.1260 306° West 392 451 34,000  Level FlightAware
09:41PM -28.8670 141.0640 306° West 392 451 34,000  Level FlightAware
09:42PM -28.8210 140.9930 306° West 393 452 34,000  Level FlightAware
09:42PM -28.7740 140.9210 307° West 393 452 34,000  Level FlightAware
09:43PM -28.7300 140.8530 306° West 391 450 34,000  Level FlightAware
09:44PM -28.6820 140.7810 307° West 392 451 34,000  Level FlightAware
09:44PM -28.6450 140.7240 306° West 392 451 34,000  Level FlightAware
09:44PM -28.6602 140.7472 307° West 34,000  Level Aus ATC (Calculated)
09:45PM -28.5830 140.6290 306° West 393 452 34,000  Level FlightAware
09:46PM -28.5370 140.5600 307° West 394 453 34,000  Level FlightAware
09:46PM -28.5000 140.5030 306° West 394 453 34,000  Level FlightAware
09:47PM -28.4590 140.4410 307° West 394 453 34,000  Level FlightAware
09:48PM -28.4060 140.3610 307° West 395 455 34,000  Level FlightAware
09:48PM -28.3750 140.3140 307° West 395 455 34,000  Level FlightAware
09:49PM -28.3190 140.2280 306° West 396 456 34,000  Level FlightAware
09:49PM -28.3348 140.2532 307° West 34,000  Level Aus ATC (Calculated)
09:50PM -28.2650 140.1480 306° West 396 456 34,000  Level FlightAware
09:51PM -28.2160 140.0740 307° West 397 457 34,000  Level FlightAware
09:52PM -28.1610 139.9900 307° West 397 457 34,000  Level FlightAware
09:53PM -28.1060 139.9040 306° West 397 457 34,000  Level FlightAware
09:53PM -28.0600 139.8330 306° West 397 457 34,000  Level FlightAware
09:54PM -28.0270 139.7810 306° West 397 457 34,000  Level FlightAware
09:54PM -28.0076 139.7621 299° West 34,000  Level Aus ATC (Calculated)
09:55PM -27.9830 139.7120 306° West 397 457 34,000  Level FlightAware
09:56PM -27.8860 139.5820 306° West 34,000  Level FlightAware
09:58PM -27.7718 139.4126 307° West  Level FlightAware Approximate
09:58PM -27.7728 139.4132 307° West 34,000  Level Aus ATC (Calculated)
09:59PM -27.6786 139.2740 307° West 34,000  Level Aus ATC (Calculated)
10:00PM -27.6906 139.2918 307° West  Level FlightAware Approximate
10:01PM -27.6120 139.1758 307° West  Level FlightAware Approximate
10:02PM -27.5494 139.0839 307° West  Level FlightAware Approximate
10:03PM -27.4868 138.9920 308° West  Level FlightAware Approximate
10:03PM -27.4426 138.9272 308° West 34,000  Level Aus ATC (Calculated)
10:04PM -27.4242 138.9002 308° West  Level FlightAware Approximate
10:04PM -27.3953 138.8580 308° West 34,000  Level Aus ATC (Calculated)
10:05PM -27.3757 138.8294 308° West  Level FlightAware Approximate
10:06PM -27.3280 138.7598 308° West  Level FlightAware Approximate
10:07PM -27.2648 138.6677 308° West  Level FlightAware Approximate
10:07PM -27.2531 138.6508 308° West 34,000  Level Aus ATC (Calculated)
10:08PM -27.1582 138.5129 308° West 34,000  Level Aus ATC (Calculated)
10:08PM -27.1582 138.5129 308° West 34,000  Level Aus ATC (Calculated)
10:09PM -27.0632 138.3753 308° West 34,000  Level Aus ATC (Calculated)
10:10PM -27.0156 138.3066 308° West 34,000  Level Aus ATC (Calculated)
10:12PM -26.9045 138.1465 308° West  Level FlightAware Approximate
10:12PM -26.8886 138.1238 308° West 34,000  Level Aus ATC (Calculated)
10:12PM -26.8886 138.1238 308° West 34,000  Level Aus ATC (Calculated)
10:14PM -26.9733 138.2457 128° Southeast  Level FlightAware Approximate
10:15PM -26.9098 138.1542 308° West  Level FlightAware Approximate
10:16PM -26.9160 138.1631 308° West  Level FlightAware Approximate
10:17PM -26.8524 138.0718 308° West  Level FlightAware Approximate
10:17PM -26.5394 137.6247 308° West 34,000  Level Aus ATC (Calculated)
10:17PM -26.5394 137.6247 308° West 34,000  Level Aus ATC (Calculated)
10:18PM -26.7888 137.9805 308° West  Level FlightAware Approximate
10:19PM -26.4542 137.5038 308° West  Level FlightAware Approximate
10:20PM -26.3902 137.4131 308° West  Level FlightAware Approximate
10:21PM -26.3262 137.3226 308° West  Level FlightAware Approximate
10:22PM -26.2621 137.2323 308° West  Level FlightAware Approximate
10:22PM -26.1884 137.1287 308° West 34,000  Level Aus ATC (Calculated)
10:22PM -26.0280 136.9030 308° West 419 482 34,000  Level FlightAware
10:23PM -25.9830 136.8410 309° West 419 482 34,000  Level FlightAware
10:24PM -25.9300 136.7670 309° West 419 482 34,000  Level FlightAware
10:24PM -26.0604 136.9490 308° West 34,000  Level Aus ATC (Calculated)
10:24PM -25.8760 136.6910 308° West 418 481 34,000  Level FlightAware
10:25PM -25.9642 136.8145 309° West 34,000  Level Aus ATC (Calculated)
10:25PM -25.8110 136.6010 308° West 418 481 34,000  Level FlightAware
10:26PM -25.9642 136.8145 309° West 34,000  Level Aus ATC (Calculated)
10:26PM -25.7600 136.5300 308° West 418 481 34,000  Level FlightAware
10:27PM -25.9000 136.7250 309° West 2,500  Descending Aus ATC (Calculated)
10:27PM -25.7040 136.4520 309° West 419 482 34,000 33,120 Climbing FlightAware
10:27PM -25.6600 136.3920 309° West 418 481 34,000  Level FlightAware
10:28PM -25.6120 136.3260 309° West 419 482 34,000  Level FlightAware
10:29PM -25.5610 136.2550 309° West 419 482 34,000  Level FlightAware
10:29PM -25.7374 136.4991 309° West 2,500  Descending Aus ATC (Calculated)
10:29PM -25.5170 136.1950 309° West 421 484 34,000 24,840 Climbing FlightAware
10:30PM -25.4510 136.1030 308° West 421 484 34,000  Level FlightAware
10:31PM -25.6070 136.3188 309° West 2,500  Descending Aus ATC (Calculated)
10:31PM -25.4030 136.0380 309° West 423 487 34,000 30,480 Climbing FlightAware
10:32PM -25.3490 135.9640 309° West 423 487 34,000  Level FlightAware
10:32PM -25.2960 135.8910 309° West 424 488 34,000  Level FlightAware
10:33PM -25.2510 135.8300 309° West 424 488 34,000  Level FlightAware
10:34PM -25.1950 135.7540 309° West 425 489 34,000  Level FlightAware
10:34PM -25.3784 136.0042 309° West 2,500  Descending Aus ATC (Calculated)
10:34PM -25.1490 135.6910 309° West 425 489 34,000 29,040 Climbing FlightAware
10:35PM -25.0950 135.6170 309° West 425 489 34,000  Level FlightAware
10:36PM -25.0450 135.5500 309° West 426 490 34,000  Level FlightAware
10:36PM -24.9980 135.4850 309° West 427 491 34,000  Level FlightAware
10:37PM -24.9520 135.4230 309° West 427 491 34,000  Level FlightAware
10:38PM -24.8940 135.3450 309° West 428 493 34,000  Level FlightAware
10:38PM -24.8460 135.2800 309° West 428 493 34,000 -420 Level FlightAware
10:39PM -25.0834 135.6015 309° West 2,500 -720 Descending Aus ATC (Calculated)
10:39PM -24.7900 135.2040 309° West 426 490 33,500 27,960 Climbing FlightAware
10:40PM -24.7410 135.1380 309° West 427 491 32,800 -1,500 Descending FlightAware
10:40PM -24.9848 135.4677 309° West 2,500 -1,860 Descending Aus ATC (Calculated)
10:41PM -24.6870 135.0680 309° West 415 478 31,500 26,880 Climbing FlightAware
10:41PM -24.6370 135.0220 320° Northwest 409 471 30,300 -2,100 Descending FlightAware
10:42PM -24.5720 134.9680 323° Northwest 400 460 28,800 -3,000 Descending FlightAware
10:42PM -24.8532 135.2896 315° West 2,500 -4,020 Descending Aus ATC (Calculated)
10:43PM -24.5120 134.9170 323° Northwest 418 481 26,200 20,640 Climbing FlightAware
10:43PM -24.4620 134.8750 323° Northwest 411 473 24,900 -2,400 Descending FlightAware
10:44PM -24.3890 134.8140 323° Northwest 402 463 23,000 -2,460 Descending FlightAware
10:44PM -24.6884 135.0675 322° Northwest 2,500 -2,400 Descending Aus ATC (Calculated)
10:45PM -24.3300 134.7640 322° Northwest 394 453 21,400 21,120 Climbing FlightAware
10:45PM -24.6554 135.0232 324° Northwest 2,500 -1,920 Descending Aus ATC (Calculated)
10:45PM -24.2740 134.7170 322° Northwest 378 435 20,100 15,240 Climbing FlightAware
10:46PM -24.2130 134.6660 322° Northwest 372 428 18,300 -2,520 Descending FlightAware
10:47PM -24.1590 134.6210 323° Northwest 369 425 16,600 -2,580 Descending FlightAware
10:47PM -24.5232 134.8460 329° Northwest 2,500 -2,580 Descending Aus ATC (Calculated)
10:47PM -24.1010 134.5730 323° Northwest 367 422 14,800 9,000 Climbing FlightAware
10:48PM -24.0460 134.5260 322° Northwest 339 390 13,900 -1,140 Descending FlightAware
10:48PM -24.4240 134.7134 334° Northwest 2,500 -960 Descending Aus ATC (Calculated)
10:49PM -23.9930 134.4820 322° Northwest 321 369 13,200 9,480 Climbing FlightAware
10:49PM -23.9460 134.4430 323° Northwest 312 359 12,300 -1,560 Descending FlightAware
10:50PM -24.3246 134.5810 339° North 2,500 -1,740 Descending Aus ATC (Calculated)
10:50PM -23.9050 134.4040 323° Northwest 304 350 11,200 6,420 Climbing FlightAware
10:50PM -24.2915 134.5369 337° Northwest 2,500 -1,440 Descending Aus ATC (Calculated)
10:51PM -23.8710 134.3430 323° Northwest 291 335 10,100 6,120 Climbing FlightAware
10:51PM -23.8550 134.3140 301° West 273 314 9,900 -900 Descending FlightAware
10:52PM -23.8360 134.2760 299° West 273 314 9,300 -1,260 Descending FlightAware
10:52PM -23.8180 134.2430 301° West 277 319 8,700 -1,380 Descending FlightAware
10:52PM -23.8110 134.2290 299° West 278 320 8,400 -1,500 Descending FlightAware
10:53PM -23.7920 134.1930 300° West 278 320 7,700 -1,380 Descending FlightAware
10:53PM -24.0923 134.2728 342° North 2,500 -1,200 Descending Aus ATC (Calculated)
10:53PM -23.7740 134.1600 300° West 276 318 7,100 5,340 Climbing FlightAware
10:54PM -23.7550 134.1240 300° West 266 306 6,800 -660 Descending FlightAware
10:54PM -23.7420 134.0900 293° West 255 293 6,500 -660 Descending FlightAware
10:55PM -23.7400 134.0680 276° West 249 287 6,300 -840 Descending FlightAware
10:55PM -23.9925 134.1411 337° Northwest 2,500 -960 Descending Aus ATC (Calculated)
10:55PM -23.7460 134.0260 261° West 237 273 5,800 2,700 Climbing FlightAware
10:56PM -23.7500 133.9910 261° West 239 275 5,200 -1,200 Descending FlightAware
10:56PM -23.8927 134.0095 341° North 2,500 -1,200 Descending Aus ATC (Calculated)
10:56PM -23.8927 134.0095 341° North 2,500 12,600 Level Aus ATC (Calculated)
10:56PM -23.7460 133.9530 277° West 242 278 4,600 5,700 Climbing FlightAware
10:56PM -23.7450 133.9430 277° West 242 278 4,400 -1,080 Descending FlightAware
10:57PM -23.7390 133.9060 280° West 233 268 3,900 -1,140 Descending FlightAware
10:57PM -23.7360 133.8780 277° West 223 257 3,400 -1,140 Descending FlightAware
10:58PM -23.7500 133.8540 237° Southwest 189 217 2,900 -960 Descending FlightAware
10:58PM -23.7620 133.8510 193° South 169 194 2,700 -780 Descending FlightAware
10:59PM -23.7770 133.8550 166° South 153 176 2,400 -900 Descending FlightAware
10:59PM -23.7860 133.8650 135° Southeast 147 169 2,100 -780 Descending FlightAware
10:59PM -23.7950 133.8820 135° Southeast 148 170 1,800 -600 Descending FlightAware
11:00PM -23.8050 133.9010 120° Southeast 130 150 -3,900 Descending FlightAware
11:00PM -23.8090 133.9080 122° Southeast 15 17  Level FlightAware
11:00PM -23.8090 133.9090 90° East 17 20  Level FlightAware